sensor_id;sensor_type;location;lat;lon;timestamp;pressure;altitude;pressure_sealevel;temperature;humidity
64139;BME280;50435;43.700;-79.318;2023-02-10T00:01:17;98793.77;;;4.72;51.66
64139;BME280;50435;43.700;-79.318;2023-02-10T00:03:45;98828.97;;;4.80;51.89
64139;BME280;50435;43.700;-79.318;2023-02-10T00:06:15;98827.94;;;4.67;52.13
64139;BME280;50435;43.700;-79.318;2023-02-10T00:08:45;98820.98;;;4.16;52.84
64139;BME280;50435;43.700;-79.318;2023-02-10T00:11:13;98835.02;;;3.96;53.83
64139;BME280;50435;43.700;-79.318;2023-02-10T00:13:42;98809.35;;;4.33;53.69
64139;BME280;50435;43.700;-79.318;2023-02-10T00:16:11;98779.36;;;4.29;54.19
64139;BME280;50435;43.700;-79.318;2023-02-10T00:18:39;98783.14;;;3.80;52.75
64139;BME280;50435;43.700;-79.318;2023-02-10T00:21:09;98789.12;;;4.26;54.41
64139;BME280;50435;43.700;-79.318;2023-02-10T00:23:36;98815.48;;;4.34;54.65
64139;BME280;50435;43.700;-79.318;2023-02-10T00:26:05;98851.70;;;4.34;54.18
64139;BME280;50435;43.700;-79.318;2023-02-10T00:28:34;98884.28;;;4.17;54.38
64139;BME280;50435;43.700;-79.318;2023-02-10T00:31:05;98888.23;;;4.46;54.74
64139;BME280;50435;43.700;-79.318;2023-02-10T00:33:33;98880.24;;;4.06;54.58
64139;BME280;50435;43.700;-79.318;2023-02-10T00:36:03;98884.95;;;4.52;54.47
64139;BME280;50435;43.700;-79.318;2023-02-10T00:38:31;98876.57;;;4.46;54.42
64139;BME280;50435;43.700;-79.318;2023-02-10T00:41:02;98843.44;;;4.31;54.19
64139;BME280;50435;43.700;-79.318;2023-02-10T00:43:30;98842.43;;;4.21;54.07
64139;BME280;50435;43.700;-79.318;2023-02-10T00:45:57;98805.12;;;4.26;54.12
64139;BME280;50435;43.700;-79.318;2023-02-10T00:48:26;98773.34;;;3.75;54.24
64139;BME280;50435;43.700;-79.318;2023-02-10T00:50:53;98767.27;;;4.17;54.19
64139;BME280;50435;43.700;-79.318;2023-02-10T00:53:21;98754.26;;;4.44;54.46
64139;BME280;50435;43.700;-79.318;2023-02-10T00:55:48;98753.30;;;4.46;54.34
64139;BME280;50435;43.700;-79.318;2023-02-10T00:58:16;98766.76;;;4.73;54.44
64139;BME280;50435;43.700;-79.318;2023-02-10T01:00:43;98780.40;;;4.69;54.62
64139;BME280;50435;43.700;-79.318;2023-02-10T01:03:11;98775.35;;;4.45;54.52
64139;BME280;50435;43.700;-79.318;2023-02-10T01:05:38;98816.98;;;4.21;54.50
64139;BME280;50435;43.700;-79.318;2023-02-10T01:08:06;98839.68;;;4.49;54.80
64139;BME280;50435;43.700;-79.318;2023-02-10T01:10:35;98791.17;;;4.22;54.87
64139;BME280;50435;43.700;-79.318;2023-02-10T01:13:03;98829.36;;;4.51;54.90
64139;BME280;50435;43.700;-79.318;2023-02-10T01:15:32;98867.50;;;4.25;54.95
64139;BME280;50435;43.700;-79.318;2023-02-10T01:18:00;98866.70;;;4.51;55.14
64139;BME280;50435;43.700;-79.318;2023-02-10T01:20:28;98884.99;;;4.26;55.16
64139;BME280;50435;43.700;-79.318;2023-02-10T01:22:55;98870.13;;;4.26;55.17
64139;BME280;50435;43.700;-79.318;2023-02-10T01:25:23;98853.07;;;4.28;55.16
64139;BME280;50435;43.700;-79.318;2023-02-10T01:27:50;98865.04;;;4.55;55.11
64139;BME280;50435;43.700;-79.318;2023-02-10T01:30:18;98866.95;;;4.74;55.22
64139;BME280;50435;43.700;-79.318;2023-02-10T01:32:45;98858.27;;;4.55;55.15
64139;BME280;50435;43.700;-79.318;2023-02-10T01:35:12;98833.75;;;4.32;55.05
64139;BME280;50435;43.700;-79.318;2023-02-10T01:37:40;98815.58;;;4.78;55.46
64139;BME280;50435;43.700;-79.318;2023-02-10T01:40:08;98814.02;;;4.56;55.57
64139;BME280;50435;43.700;-79.318;2023-02-10T01:42:36;98816.86;;;4.34;55.24
64139;BME280;50435;43.700;-79.318;2023-02-10T01:45:16;98831.34;;;4.67;54.86
64139;BME280;50435;43.700;-79.318;2023-02-10T01:47:44;98816.84;;;4.36;55.37
64139;BME280;50435;43.700;-79.318;2023-02-10T01:50:15;98806.23;;;4.61;55.18
64139;BME280;50435;43.700;-79.318;2023-02-10T01:52:44;98816.79;;;4.40;55.37
64139;BME280;50435;43.700;-79.318;2023-02-10T01:55:15;98804.31;;;4.88;55.40
64139;BME280;50435;43.700;-79.318;2023-02-10T01:57:45;98811.19;;;4.39;55.63
64139;BME280;50435;43.700;-79.318;2023-02-10T02:00:14;98861.15;;;4.93;55.35
64139;BME280;50435;43.700;-79.318;2023-02-10T02:02:43;98888.69;;;4.45;55.69
64139;BME280;50435;43.700;-79.318;2023-02-10T02:05:26;98893.09;;;4.94;55.44
64139;BME280;50435;43.700;-79.318;2023-02-10T02:07:57;98871.78;;;4.47;54.97
64139;BME280;50435;43.700;-79.318;2023-02-10T02:10:38;98842.78;;;4.44;55.41
64139;BME280;50435;43.700;-79.318;2023-02-10T02:13:14;98881.24;;;4.72;55.61
64139;BME280;50435;43.700;-79.318;2023-02-10T02:15:49;98877.19;;;4.46;55.50
64139;BME280;50435;43.700;-79.318;2023-02-10T02:18:25;98857.64;;;4.95;54.88
64139;BME280;50435;43.700;-79.318;2023-02-10T02:21:14;98862.93;;;4.49;54.62
64139;BME280;50435;43.700;-79.318;2023-02-10T02:24:19;98854.59;;;4.72;55.43
64139;BME280;50435;43.700;-79.318;2023-02-10T02:27:20;98829.47;;;4.91;55.40
64139;BME280;50435;43.700;-79.318;2023-02-10T02:30:09;98842.15;;;4.45;54.62
64139;BME280;50435;43.700;-79.318;2023-02-10T02:32:42;98841.46;;;4.89;55.01
64139;BME280;50435;43.700;-79.318;2023-02-10T02:35:15;98838.01;;;4.67;54.50
64139;BME280;50435;43.700;-79.318;2023-02-10T02:37:46;98852.05;;;4.87;54.33
64139;BME280;50435;43.700;-79.318;2023-02-10T02:40:15;98857.80;;;4.36;54.15
64139;BME280;50435;43.700;-79.318;2023-02-10T02:42:43;98857.29;;;4.60;54.59
64139;BME280;50435;43.700;-79.318;2023-02-10T02:45:14;98852.19;;;4.84;54.53
64139;BME280;50435;43.700;-79.318;2023-02-10T02:47:51;98853.88;;;4.59;54.46
64139;BME280;50435;43.700;-79.318;2023-02-10T02:50:25;98854.48;;;4.65;53.95
64139;BME280;50435;43.700;-79.318;2023-02-10T02:53:04;98850.70;;;4.82;54.17
64139;BME280;50435;43.700;-79.318;2023-02-10T02:55:41;98856.19;;;4.76;54.21
64139;BME280;50435;43.700;-79.318;2023-02-10T02:58:13;98867.46;;;4.58;54.00
64139;BME280;50435;43.700;-79.318;2023-02-10T03:00:46;98871.67;;;4.30;54.07
64139;BME280;50435;43.700;-79.318;2023-02-10T03:03:15;98865.26;;;4.76;53.92
64139;BME280;50435;43.700;-79.318;2023-02-10T03:05:44;98871.15;;;4.76;53.76
64139;BME280;50435;43.700;-79.318;2023-02-10T03:08:12;98878.54;;;4.73;53.86
64139;BME280;50435;43.700;-79.318;2023-02-10T03:10:39;98874.88;;;4.30;53.82
64139;BME280;50435;43.700;-79.318;2023-02-10T03:13:07;98886.12;;;4.64;53.76
64139;BME280;50435;43.700;-79.318;2023-02-10T03:15:34;98883.16;;;4.37;53.47
64139;BME280;50435;43.700;-79.318;2023-02-10T03:18:02;98877.66;;;4.56;53.80
64139;BME280;50435;43.700;-79.318;2023-02-10T03:20:29;98880.56;;;4.26;53.60
64139;BME280;50435;43.700;-79.318;2023-02-10T03:22:56;98890.02;;;4.53;54.00
64139;BME280;50435;43.700;-79.318;2023-02-10T03:25:24;98891.12;;;3.82;54.48
64139;BME280;50435;43.700;-79.318;2023-02-10T03:27:51;98891.83;;;4.53;54.07
64139;BME280;50435;43.700;-79.318;2023-02-10T03:30:19;98894.31;;;4.29;54.13
64139;BME280;50435;43.700;-79.318;2023-02-10T03:32:46;98897.58;;;4.30;54.19
64139;BME280;50435;43.700;-79.318;2023-02-10T03:35:13;98897.79;;;4.79;54.31
64139;BME280;50435;43.700;-79.318;2023-02-10T03:37:41;98893.86;;;4.36;53.58
64139;BME280;50435;43.700;-79.318;2023-02-10T03:40:10;98900.25;;;4.59;54.58
64139;BME280;50435;43.700;-79.318;2023-02-10T03:42:37;98901.11;;;4.68;54.10
64139;BME280;50435;43.700;-79.318;2023-02-10T03:45:05;98898.69;;;4.70;53.93
64139;BME280;50435;43.700;-79.318;2023-02-10T03:47:33;98905.96;;;4.74;53.76
64139;BME280;50435;43.700;-79.318;2023-02-10T03:50:01;98915.31;;;5.33;54.00
64139;BME280;50435;43.700;-79.318;2023-02-10T03:52:29;98917.45;;;4.78;53.92
64139;BME280;50435;43.700;-79.318;2023-02-10T03:54:56;98914.06;;;5.09;52.29
64139;BME280;50435;43.700;-79.318;2023-02-10T03:57:24;98911.52;;;4.61;51.06
64139;BME280;50435;43.700;-79.318;2023-02-10T03:59:51;98917.11;;;5.27;49.85
64139;BME280;50435;43.700;-79.318;2023-02-10T04:02:19;98922.01;;;5.76;51.98
64139;BME280;50435;43.700;-79.318;2023-02-10T04:04:46;98924.56;;;5.62;51.63
64139;BME280;50435;43.700;-79.318;2023-02-10T04:07:13;98925.49;;;5.48;53.18
64139;BME280;50435;43.700;-79.318;2023-02-10T04:09:41;98929.38;;;5.16;53.66
64139;BME280;50435;43.700;-79.318;2023-02-10T04:12:08;98936.08;;;5.07;53.78
64139;BME280;50435;43.700;-79.318;2023-02-10T04:14:36;98941.84;;;5.14;52.31
64139;BME280;50435;43.700;-79.318;2023-02-10T04:17:04;98940.67;;;5.08;54.38
64139;BME280;50435;43.700;-79.318;2023-02-10T04:19:32;98941.36;;;5.07;54.29
64139;BME280;50435;43.700;-79.318;2023-02-10T04:21:59;98941.69;;;5.17;54.12
64139;BME280;50435;43.700;-79.318;2023-02-10T04:24:26;98940.65;;;4.69;54.53
64139;BME280;50435;43.700;-79.318;2023-02-10T04:26:54;98942.82;;;4.97;54.49
64139;BME280;50435;43.700;-79.318;2023-02-10T04:29:22;98939.22;;;5.23;54.97
64139;BME280;50435;43.700;-79.318;2023-02-10T04:31:50;98926.64;;;5.32;53.35
64139;BME280;50435;43.700;-79.318;2023-02-10T04:34:17;98930.59;;;5.39;54.34
64139;BME280;50435;43.700;-79.318;2023-02-10T04:36:45;98916.34;;;5.43;51.06
64139;BME280;50435;43.700;-79.318;2023-02-10T04:39:12;98911.67;;;5.23;52.66
64139;BME280;50435;43.700;-79.318;2023-02-10T04:41:40;98922.49;;;5.22;53.77
64139;BME280;50435;43.700;-79.318;2023-02-10T04:44:08;98927.66;;;5.48;51.27
64139;BME280;50435;43.700;-79.318;2023-02-10T04:46:36;98931.01;;;5.44;54.35
64139;BME280;50435;43.700;-79.318;2023-02-10T04:49:03;98921.07;;;5.25;54.10
64139;BME280;50435;43.700;-79.318;2023-02-10T04:51:31;98928.26;;;5.52;53.93
64139;BME280;50435;43.700;-79.318;2023-02-10T04:53:58;98931.62;;;5.49;54.54
64139;BME280;50435;43.700;-79.318;2023-02-10T04:56:25;98927.60;;;5.05;54.78
64139;BME280;50435;43.700;-79.318;2023-02-10T04:58:52;98923.72;;;5.50;54.48
64139;BME280;50435;43.700;-79.318;2023-02-10T05:01:19;98937.50;;;5.65;52.23
64139;BME280;50435;43.700;-79.318;2023-02-10T05:03:47;98940.60;;;5.45;54.10
64139;BME280;50435;43.700;-79.318;2023-02-10T05:06:15;98948.23;;;5.74;53.13
64139;BME280;50435;43.700;-79.318;2023-02-10T05:08:44;98954.14;;;5.63;52.47
64139;BME280;50435;43.700;-79.318;2023-02-10T05:11:13;98952.30;;;5.75;53.03
64139;BME280;50435;43.700;-79.318;2023-02-10T05:13:41;98944.26;;;5.56;52.98
64139;BME280;50435;43.700;-79.318;2023-02-10T05:16:10;98961.92;;;5.28;53.19
64139;BME280;50435;43.700;-79.318;2023-02-10T05:18:39;98962.57;;;5.48;53.53
64139;BME280;50435;43.700;-79.318;2023-02-10T05:21:07;98969.95;;;5.77;52.53
64139;BME280;50435;43.700;-79.318;2023-02-10T05:23:36;98980.67;;;5.78;53.38
64139;BME280;50435;43.700;-79.318;2023-02-10T05:26:04;98986.60;;;5.83;52.66
64139;BME280;50435;43.700;-79.318;2023-02-10T05:28:32;98982.25;;;5.35;50.70
64139;BME280;50435;43.700;-79.318;2023-02-10T05:31:01;98992.29;;;5.38;52.57
64139;BME280;50435;43.700;-79.318;2023-02-10T05:33:29;98983.37;;;5.38;52.05
64139;BME280;50435;43.700;-79.318;2023-02-10T05:35:56;98991.31;;;5.48;52.69
64139;BME280;50435;43.700;-79.318;2023-02-10T05:38:23;98993.62;;;5.01;51.30
64139;BME280;50435;43.700;-79.318;2023-02-10T05:40:50;98997.33;;;5.43;51.96
64139;BME280;50435;43.700;-79.318;2023-02-10T05:43:17;99003.29;;;5.49;52.24
64139;BME280;50435;43.700;-79.318;2023-02-10T05:45:45;98990.07;;;5.44;52.24
64139;BME280;50435;43.700;-79.318;2023-02-10T05:48:13;98993.89;;;5.46;51.53
64139;BME280;50435;43.700;-79.318;2023-02-10T05:50:41;98997.88;;;5.32;52.40
64139;BME280;50435;43.700;-79.318;2023-02-10T05:53:08;99000.10;;;5.48;52.22
64139;BME280;50435;43.700;-79.318;2023-02-10T05:55:36;99008.10;;;5.53;52.22
64139;BME280;50435;43.700;-79.318;2023-02-10T05:58:03;99021.14;;;5.55;52.05
64139;BME280;50435;43.700;-79.318;2023-02-10T06:00:31;99026.56;;;5.29;51.91
64139;BME280;50435;43.700;-79.318;2023-02-10T06:02:59;99017.64;;;5.41;52.27
64139;BME280;50435;43.700;-79.318;2023-02-10T06:05:26;99033.04;;;4.97;52.31
64139;BME280;50435;43.700;-79.318;2023-02-10T06:07:53;99031.36;;;5.42;51.86
64139;BME280;50435;43.700;-79.318;2023-02-10T06:10:21;99033.43;;;5.40;52.03
64139;BME280;50435;43.700;-79.318;2023-02-10T06:12:49;99031.89;;;5.45;50.94
64139;BME280;50435;43.700;-79.318;2023-02-10T06:15:16;99030.10;;;5.40;51.66
64139;BME280;50435;43.700;-79.318;2023-02-10T06:17:44;99021.29;;;5.24;50.72
64139;BME280;50435;43.700;-79.318;2023-02-10T06:20:12;99034.99;;;5.45;50.34
64139;BME280;50435;43.700;-79.318;2023-02-10T06:22:39;99029.39;;;5.17;51.61
64139;BME280;50435;43.700;-79.318;2023-02-10T06:25:07;99034.39;;;5.40;51.54
64139;BME280;50435;43.700;-79.318;2023-02-10T06:27:34;99040.34;;;5.30;51.50
64139;BME280;50435;43.700;-79.318;2023-02-10T06:30:01;99044.00;;;5.17;50.83
64139;BME280;50435;43.700;-79.318;2023-02-10T06:32:28;99054.95;;;4.89;51.66
64139;BME280;50435;43.700;-79.318;2023-02-10T06:34:56;99055.78;;;5.32;51.59
64139;BME280;50435;43.700;-79.318;2023-02-10T06:37:23;99063.73;;;4.56;51.85
64139;BME280;50435;43.700;-79.318;2023-02-10T06:39:51;99067.80;;;5.31;51.32
64139;BME280;50435;43.700;-79.318;2023-02-10T06:42:18;99078.50;;;5.10;51.41
64139;BME280;50435;43.700;-79.318;2023-02-10T06:44:45;99077.57;;;5.07;51.56
64139;BME280;50435;43.700;-79.318;2023-02-10T06:47:12;99075.02;;;4.75;51.42
64139;BME280;50435;43.700;-79.318;2023-02-10T06:49:39;99080.83;;;5.28;51.30
64139;BME280;50435;43.700;-79.318;2023-02-10T06:52:07;99089.14;;;5.26;51.48
64139;BME280;50435;43.700;-79.318;2023-02-10T06:54:35;99089.98;;;5.22;51.47
64139;BME280;50435;43.700;-79.318;2023-02-10T06:57:02;99089.20;;;5.35;49.75
64139;BME280;50435;43.700;-79.318;2023-02-10T06:59:29;99097.55;;;5.06;51.31
64139;BME280;50435;43.700;-79.318;2023-02-10T07:01:56;99092.86;;;5.21;50.61
64139;BME280;50435;43.700;-79.318;2023-02-10T07:04:23;99102.31;;;4.42;50.21
64139;BME280;50435;43.700;-79.318;2023-02-10T07:06:51;99114.79;;;5.14;50.92
64139;BME280;50435;43.700;-79.318;2023-02-10T07:09:18;99110.48;;;5.37;50.67
64139;BME280;50435;43.700;-79.318;2023-02-10T07:11:45;99121.69;;;5.36;50.82
64139;BME280;50435;43.700;-79.318;2023-02-10T07:14:13;99117.07;;;5.32;50.94
64139;BME280;50435;43.700;-79.318;2023-02-10T07:16:41;99119.69;;;5.28;50.90
64139;BME280;50435;43.700;-79.318;2023-02-10T07:19:08;99119.39;;;5.29;50.72
64139;BME280;50435;43.700;-79.318;2023-02-10T07:21:35;99121.09;;;5.36;50.27
64139;BME280;50435;43.700;-79.318;2023-02-10T07:24:03;99131.48;;;5.12;50.54
64139;BME280;50435;43.700;-79.318;2023-02-10T07:26:31;99136.10;;;5.30;50.53
64139;BME280;50435;43.700;-79.318;2023-02-10T07:28:59;99130.36;;;5.06;50.27
64139;BME280;50435;43.700;-79.318;2023-02-10T07:31:26;99142.56;;;4.81;50.31
64139;BME280;50435;43.700;-79.318;2023-02-10T07:33:53;99149.90;;;5.32;50.09
64139;BME280;50435;43.700;-79.318;2023-02-10T07:36:20;99147.98;;;5.21;50.07
64139;BME280;50435;43.700;-79.318;2023-02-10T07:38:47;99147.28;;;5.03;50.39
64139;BME280;50435;43.700;-79.318;2023-02-10T07:41:15;99143.42;;;5.28;50.04
64139;BME280;50435;43.700;-79.318;2023-02-10T07:43:42;99139.92;;;5.02;50.31
64139;BME280;50435;43.700;-79.318;2023-02-10T07:46:09;99147.96;;;5.26;49.91
64139;BME280;50435;43.700;-79.318;2023-02-10T07:48:36;99146.85;;;5.21;50.21
64139;BME280;50435;43.700;-79.318;2023-02-10T07:51:04;99160.27;;;5.46;50.16
64139;BME280;50435;43.700;-79.318;2023-02-10T07:53:32;99166.00;;;5.26;49.91
64139;BME280;50435;43.700;-79.318;2023-02-10T07:55:59;99168.78;;;5.23;49.95
64139;BME280;50435;43.700;-79.318;2023-02-10T07:58:26;99164.94;;;4.70;50.00
64139;BME280;50435;43.700;-79.318;2023-02-10T08:00:53;99171.55;;;5.19;49.87
64139;BME280;50435;43.700;-79.318;2023-02-10T08:03:21;99169.29;;;5.37;50.14
64139;BME280;50435;43.700;-79.318;2023-02-10T08:05:49;99180.33;;;4.86;50.23
64139;BME280;50435;43.700;-79.318;2023-02-10T08:08:16;99180.28;;;5.01;50.16
64139;BME280;50435;43.700;-79.318;2023-02-10T08:10:43;99184.26;;;5.02;50.16
64139;BME280;50435;43.700;-79.318;2023-02-10T08:13:10;99187.95;;;4.89;50.10
64139;BME280;50435;43.700;-79.318;2023-02-10T08:15:37;99192.33;;;4.95;50.22
64139;BME280;50435;43.700;-79.318;2023-02-10T08:18:05;99188.23;;;4.88;50.41
64139;BME280;50435;43.700;-79.318;2023-02-10T08:20:32;99184.24;;;4.97;50.00
64139;BME280;50435;43.700;-79.318;2023-02-10T08:22:59;99192.62;;;4.92;50.40
64139;BME280;50435;43.700;-79.318;2023-02-10T08:25:27;99193.89;;;4.48;50.31
64139;BME280;50435;43.700;-79.318;2023-02-10T08:27:55;99203.78;;;4.85;50.42
64139;BME280;50435;43.700;-79.318;2023-02-10T08:30:24;99200.21;;;4.39;50.41
64139;BME280;50435;43.700;-79.318;2023-02-10T08:32:51;99204.41;;;4.90;50.05
64139;BME280;50435;43.700;-79.318;2023-02-10T08:35:18;99214.52;;;5.11;50.16
64139;BME280;50435;43.700;-79.318;2023-02-10T08:37:46;99212.19;;;4.92;49.78
64139;BME280;50435;43.700;-79.318;2023-02-10T08:40:14;99214.64;;;5.18;49.66
64139;BME280;50435;43.700;-79.318;2023-02-10T08:42:42;99212.96;;;4.90;49.83
64139;BME280;50435;43.700;-79.318;2023-02-10T08:45:10;99217.10;;;4.84;49.70
64139;BME280;50435;43.700;-79.318;2023-02-10T08:47:38;99232.20;;;4.79;49.73
64139;BME280;50435;43.700;-79.318;2023-02-10T08:50:06;99227.14;;;4.79;49.65
64139;BME280;50435;43.700;-79.318;2023-02-10T08:52:33;99229.55;;;4.85;49.37
64139;BME280;50435;43.700;-79.318;2023-02-10T08:55:00;99229.27;;;5.03;49.64
64139;BME280;50435;43.700;-79.318;2023-02-10T08:57:28;99235.60;;;4.47;49.68
64139;BME280;50435;43.700;-79.318;2023-02-10T08:59:56;99238.20;;;4.94;49.76
64139;BME280;50435;43.700;-79.318;2023-02-10T09:02:23;99249.04;;;4.10;49.91
64139;BME280;50435;43.700;-79.318;2023-02-10T09:04:50;99250.65;;;4.00;49.93
64139;BME280;50435;43.700;-79.318;2023-02-10T09:07:17;99251.32;;;4.59;49.65
64139;BME280;50435;43.700;-79.318;2023-02-10T09:09:44;99245.93;;;4.37;49.81
64139;BME280;50435;43.700;-79.318;2023-02-10T09:12:12;99253.56;;;4.79;49.65
64139;BME280;50435;43.700;-79.318;2023-02-10T09:14:40;99261.22;;;4.53;49.59
64139;BME280;50435;43.700;-79.318;2023-02-10T09:17:08;99264.84;;;4.70;49.55
64139;BME280;50435;43.700;-79.318;2023-02-10T09:19:36;99275.17;;;4.38;49.50
64139;BME280;50435;43.700;-79.318;2023-02-10T09:22:05;99280.33;;;4.55;49.47
64139;BME280;50435;43.700;-79.318;2023-02-10T09:24:33;99290.59;;;4.22;49.74
64139;BME280;50435;43.700;-79.318;2023-02-10T09:24:34;99289.90;;;4.22;49.77
64139;BME280;50435;43.700;-79.318;2023-02-10T09:27:01;99300.66;;;4.21;49.77
64139;BME280;50435;43.700;-79.318;2023-02-10T09:29:28;99306.48;;;4.02;49.46
64139;BME280;50435;43.700;-79.318;2023-02-10T09:31:55;99314.81;;;4.19;49.52
64139;BME280;50435;43.700;-79.318;2023-02-10T09:34:22;99321.93;;;3.71;49.48
64139;BME280;50435;43.700;-79.318;2023-02-10T09:36:50;99343.14;;;4.14;49.45
64139;BME280;50435;43.700;-79.318;2023-02-10T09:39:17;99348.95;;;4.72;49.14
64139;BME280;50435;43.700;-79.318;2023-02-10T09:41:54;99351.76;;;4.61;49.41
64139;BME280;50435;43.700;-79.318;2023-02-10T09:44:24;99362.35;;;4.04;49.55
64139;BME280;50435;43.700;-79.318;2023-02-10T09:47:14;99369.19;;;4.06;49.41
64139;BME280;50435;43.700;-79.318;2023-02-10T09:50:57;99375.83;;;4.30;49.35
64139;BME280;50435;43.700;-79.318;2023-02-10T09:53:29;99385.61;;;3.79;49.40
64139;BME280;50435;43.700;-79.318;2023-02-10T09:55:59;99392.40;;;4.53;49.12
64139;BME280;50435;43.700;-79.318;2023-02-10T09:58:33;99389.81;;;3.94;49.38
64139;BME280;50435;43.700;-79.318;2023-02-10T10:01:06;99398.65;;;4.50;49.18
64139;BME280;50435;43.700;-79.318;2023-02-10T10:03:42;99401.99;;;4.33;48.93
64139;BME280;50435;43.700;-79.318;2023-02-10T10:06:17;99403.18;;;4.51;48.93
64139;BME280;50435;43.700;-79.318;2023-02-10T10:08:56;99409.60;;;4.25;48.94
64139;BME280;50435;43.700;-79.318;2023-02-10T10:11:32;99412.17;;;3.88;49.05
64139;BME280;50435;43.700;-79.318;2023-02-10T10:14:02;99415.71;;;4.23;48.79
64139;BME280;50435;43.700;-79.318;2023-02-10T10:16:43;99424.19;;;3.83;49.20
64139;BME280;50435;43.700;-79.318;2023-02-10T10:19:20;99430.57;;;4.31;48.98
64139;BME280;50435;43.700;-79.318;2023-02-10T10:22:00;99440.06;;;4.32;48.96
64139;BME280;50435;43.700;-79.318;2023-02-10T10:24:41;99448.35;;;4.06;49.09
64139;BME280;50435;43.700;-79.318;2023-02-10T10:27:18;99446.24;;;4.06;48.81
64139;BME280;50435;43.700;-79.318;2023-02-10T10:29:52;99458.45;;;3.95;49.13
64139;BME280;50435;43.700;-79.318;2023-02-10T10:32:31;99451.39;;;4.15;49.09
64139;BME280;50435;43.700;-79.318;2023-02-10T10:35:01;99446.11;;;4.22;48.78
64139;BME280;50435;43.700;-79.318;2023-02-10T10:37:28;99451.34;;;3.73;48.85
64139;BME280;50435;43.700;-79.318;2023-02-10T10:40:01;99454.89;;;4.33;49.13
64139;BME280;50435;43.700;-79.318;2023-02-10T10:42:40;99458.08;;;3.59;49.02
64139;BME280;50435;43.700;-79.318;2023-02-10T10:45:17;99463.31;;;4.29;49.17
64139;BME280;50435;43.700;-79.318;2023-02-10T10:47:49;99469.50;;;4.04;49.25
64139;BME280;50435;43.700;-79.318;2023-02-10T10:50:21;99471.88;;;4.03;49.15
64139;BME280;50435;43.700;-79.318;2023-02-10T10:52:51;99480.58;;;3.71;49.23
64139;BME280;50435;43.700;-79.318;2023-02-10T10:55:24;99473.85;;;3.92;49.24
64139;BME280;50435;43.700;-79.318;2023-02-10T10:57:55;99487.22;;;4.04;49.23
64139;BME280;50435;43.700;-79.318;2023-02-10T11:00:26;99489.62;;;3.28;49.51
64139;BME280;50435;43.700;-79.318;2023-02-10T11:02:57;99496.01;;;3.85;49.40
64139;BME280;50435;43.700;-79.318;2023-02-10T11:05:29;99501.89;;;3.14;49.16
64139;BME280;50435;43.700;-79.318;2023-02-10T11:07:58;99510.36;;;3.78;49.27
64139;BME280;50435;43.700;-79.318;2023-02-10T11:10:30;99517.81;;;3.22;49.35
64139;BME280;50435;43.700;-79.318;2023-02-10T11:13:00;99525.31;;;3.67;49.46
64139;BME280;50435;43.700;-79.318;2023-02-10T11:15:32;99538.09;;;3.43;49.47
64139;BME280;50435;43.700;-79.318;2023-02-10T11:18:02;99532.11;;;3.85;49.47
64139;BME280;50435;43.700;-79.318;2023-02-10T11:20:33;99528.56;;;3.65;49.43
64139;BME280;50435;43.700;-79.318;2023-02-10T11:23:03;99527.66;;;3.61;49.42
64139;BME280;50435;43.700;-79.318;2023-02-10T11:25:33;99524.61;;;3.63;49.22
64139;BME280;50435;43.700;-79.318;2023-02-10T11:28:05;99529.25;;;3.60;49.68
64139;BME280;50435;43.700;-79.318;2023-02-10T11:30:36;99528.57;;;3.59;49.46
64139;BME280;50435;43.700;-79.318;2023-02-10T11:33:06;99531.91;;;3.67;49.20
64139;BME280;50435;43.700;-79.318;2023-02-10T11:35:48;99541.80;;;3.55;49.34
64139;BME280;50435;43.700;-79.318;2023-02-10T11:38:20;99545.58;;;3.52;49.35
64139;BME280;50435;43.700;-79.318;2023-02-10T11:40:52;99552.66;;;3.54;49.29
64139;BME280;50435;43.700;-79.318;2023-02-10T11:43:23;99553.11;;;4.04;49.09
64139;BME280;50435;43.700;-79.318;2023-02-10T11:45:55;99560.83;;;3.80;49.19
64139;BME280;50435;43.700;-79.318;2023-02-10T11:48:25;99562.72;;;3.07;49.82
64139;BME280;50435;43.700;-79.318;2023-02-10T11:51:03;99560.80;;;3.73;49.26
64139;BME280;50435;43.700;-79.318;2023-02-10T11:53:33;99575.60;;;3.47;49.28
64139;BME280;50435;43.700;-79.318;2023-02-10T11:56:05;99574.12;;;3.35;49.48
64139;BME280;50435;43.700;-79.318;2023-02-10T11:58:45;99578.23;;;3.40;49.34
64139;BME280;50435;43.700;-79.318;2023-02-10T12:01:20;99584.97;;;3.54;49.68
64139;BME280;50435;43.700;-79.318;2023-02-10T12:04:00;99587.61;;;3.86;49.25
64139;BME280;50435;43.700;-79.318;2023-02-10T12:06:35;99586.43;;;3.43;50.23
64139;BME280;50435;43.700;-79.318;2023-02-10T12:09:08;99596.35;;;3.64;48.99
64139;BME280;50435;43.700;-79.318;2023-02-10T12:11:46;99606.14;;;3.11;49.48
64139;BME280;50435;43.700;-79.318;2023-02-10T12:14:31;99615.04;;;3.45;49.06
64139;BME280;50435;43.700;-79.318;2023-02-10T12:17:13;99621.89;;;3.58;48.99
64139;BME280;50435;43.700;-79.318;2023-02-10T12:19:57;99636.25;;;3.45;49.63
64139;BME280;50435;43.700;-79.318;2023-02-10T12:22:35;99644.00;;;3.27;49.95
64139;BME280;50435;43.700;-79.318;2023-02-10T12:25:13;99652.30;;;3.69;48.56
64139;BME280;50435;43.700;-79.318;2023-02-10T12:27:52;99644.65;;;3.70;48.75
64139;BME280;50435;43.700;-79.318;2023-02-10T12:30:31;99652.65;;;2.58;48.77
64139;BME280;50435;43.700;-79.318;2023-02-10T12:33:20;99672.22;;;3.52;48.67
64139;BME280;50435;43.700;-79.318;2023-02-10T12:35:57;99677.41;;;3.72;48.26
64139;BME280;50435;43.700;-79.318;2023-02-10T12:38:40;99684.78;;;3.22;48.71
64139;BME280;50435;43.700;-79.318;2023-02-10T12:41:20;99689.46;;;3.58;48.21
64139;BME280;50435;43.700;-79.318;2023-02-10T12:44:02;99699.44;;;3.85;48.45
64139;BME280;50435;43.700;-79.318;2023-02-10T12:46:39;99704.32;;;3.28;48.39
64139;BME280;50435;43.700;-79.318;2023-02-10T12:49:15;99715.05;;;3.86;48.69
64139;BME280;50435;43.700;-79.318;2023-02-10T12:51:56;99719.18;;;3.61;48.14
64139;BME280;50435;43.700;-79.318;2023-02-10T12:54:31;99727.71;;;2.94;48.29
64139;BME280;50435;43.700;-79.318;2023-02-10T12:57:05;99735.85;;;3.75;48.41
64139;BME280;50435;43.700;-79.318;2023-02-10T12:59:38;99751.51;;;3.27;48.34
64139;BME280;50435;43.700;-79.318;2023-02-10T13:02:15;99740.27;;;3.78;48.41
64139;BME280;50435;43.700;-79.318;2023-02-10T13:04:47;99737.50;;;3.22;48.85